Time;durP1;ratioP1;P1;durP2;ratioP2;P2;SDS_P1;SDS_P2;PMS_P1;PMS_P2;Temp;Humidity;BMP_temperature;BMP_pressure;BME280_temperature;BME280_humidity;BME280_pressure;Samples;Min_cycle;Max_cycle;Signal;HPM_P1;HPM_P2
2022/03/13 00:02:09;;;;;;;10.02;3.95;;;8.60;99.90;;;;;;5037832;28;20045;-74
2022/03/13 00:04:36;;;;;;;4.57;3.70;;;8.60;99.90;;;;;;5062916;28;20079;-73
2022/03/13 00:07:14;;;;;;;9.65;4.30;;;8.60;99.90;;;;;;5060517;28;20048;-74
2022/03/13 00:09:41;;;;;;;4.68;3.30;;;8.60;99.90;;;;;;5032582;28;20080;-74
2022/03/13 00:12:08;;;;;;;7.60;3.90;;;8.70;99.90;;;;;;5038492;28;20056;-73
2022/03/13 00:14:42;;;;;;;8.13;4.80;;;8.70;99.90;;;;;;5054387;28;20076;-74
2022/03/13 00:17:14;;;;;;;5.57;3.85;;;8.70;99.90;;;;;;5056730;28;20047;-73
2022/03/13 00:19:41;;;;;;;4.82;3.63;;;8.70;99.90;;;;;;5071685;28;20052;-73
2022/03/13 00:22:09;;;;;;;6.70;3.65;;;8.70;99.90;;;;;;5069250;28;20358;-74
2022/03/13 00:24:36;;;;;;;8.98;3.70;;;8.70;99.90;;;;;;5069174;28;20053;-73
2022/03/13 00:27:04;;;;;;;6.13;4.43;;;8.70;99.90;;;;;;5057276;28;20403;-73
2022/03/13 00:29:34;;;;;;;5.78;4.15;;;8.70;99.90;;;;;;5062609;28;20052;-73
2022/03/13 00:32:02;;;;;;;15.48;4.32;;;8.80;99.90;;;;;;5052844;28;20052;-74
2022/03/13 00:34:30;;;;;;;8.20;5.43;;;8.80;99.90;;;;;;5052864;28;20136;-72
2022/03/13 00:36:57;;;;;;;6.43;4.18;;;8.80;99.90;;;;;;5055473;28;20092;-74
2022/03/13 00:39:23;;;;;;;6.30;3.75;;;8.70;99.90;;;;;;5069494;28;20048;-74
2022/03/13 00:41:50;;;;;;;8.35;4.18;;;8.80;99.90;;;;;;5065847;28;20061;-74
2022/03/13 00:44:19;;;;;;;5.90;4.03;;;8.80;99.90;;;;;;5048806;28;20048;-74
2022/03/13 00:46:46;;;;;;;5.45;3.75;;;8.90;99.90;;;;;;5056858;28;20416;-74
2022/03/13 00:49:13;;;;;;;4.72;3.47;;;8.90;99.90;;;;;;5067051;28;20139;-74
2022/03/13 00:51:40;;;;;;;5.72;3.88;;;8.90;99.90;;;;;;5051807;28;20053;-74
2022/03/13 00:54:07;;;;;;;4.47;3.78;;;8.90;99.90;;;;;;5068162;28;20041;-74
2022/03/13 00:56:34;;;;;;;6.05;3.70;;;8.90;99.90;;;;;;5068385;28;20048;-74
2022/03/13 00:59:01;;;;;;;7.10;3.90;;;8.90;99.90;;;;;;5064607;28;20047;-74
2022/03/13 01:01:28;;;;;;;5.72;3.92;;;8.90;99.90;;;;;;5059921;28;20490;-74
2022/03/13 01:03:56;;;;;;;5.82;3.90;;;8.90;99.90;;;;;;5053032;28;20118;-74
2022/03/13 01:06:23;;;;;;;5.88;4.00;;;9.00;99.90;;;;;;5058317;28;20040;-74
2022/03/13 01:08:50;;;;;;;8.00;4.07;;;9.00;99.90;;;;;;5051178;28;20049;-74
2022/03/13 01:11:21;;;;;;;5.68;3.63;;;9.00;99.90;;;;;;5059326;28;20044;-74
2022/03/13 01:13:48;;;;;;;8.05;3.95;;;9.00;99.90;;;;;;5069680;28;20084;-74
2022/03/13 01:16:17;;;;;;;5.55;4.03;;;9.00;99.90;;;;;;5038786;28;20075;-74
2022/03/13 01:18:46;;;;;;;7.72;3.60;;;9.00;99.90;;;;;;5060613;28;20041;-74
2022/03/13 01:21:14;;;;;;;6.57;3.58;;;9.00;99.90;;;;;;5025442;28;20049;-74
2022/03/13 01:23:41;;;;;;;6.20;3.50;;;9.00;99.90;;;;;;5032851;28;20072;-74
2022/03/13 01:26:24;;;;;;;5.30;3.22;;;9.00;99.90;;;;;;5045771;28;20075;-74
2022/03/13 01:28:52;;;;;;;6.43;3.20;;;8.90;99.90;;;;;;5049361;28;20041;-74
2022/03/13 01:31:21;;;;;;;6.13;3.20;;;8.90;99.90;;;;;;5059378;28;20072;-74
2022/03/13 01:33:49;;;;;;;8.27;4.60;;;8.80;99.90;;;;;;5058726;28;20575;-74
2022/03/13 01:36:16;;;;;;;9.50;3.92;;;8.80;99.90;;;;;;5067560;28;20049;-74
2022/03/13 01:38:43;;;;;;;7.43;3.40;;;8.80;99.90;;;;;;5056591;28;20053;-74
2022/03/13 01:41:14;;;;;;;4.95;3.70;;;8.70;99.90;;;;;;5047202;28;20059;-74
2022/03/13 01:43:41;;;;;;;7.75;4.20;;;8.70;99.90;;;;;;5033985;28;20129;-74
2022/03/13 01:46:13;;;;;;;7.10;3.60;;;8.60;99.90;;;;;;5050018;28;20041;-74
2022/03/13 01:48:58;;;;;;;4.47;3.38;;;8.60;99.90;;;;;;5070489;28;20044;-74
2022/03/13 01:51:26;;;;;;;5.13;3.40;;;8.60;99.90;;;;;;5055022;28;20048;-74
2022/03/13 01:53:55;;;;;;;6.65;3.25;;;8.60;99.90;;;;;;5053872;28;20056;-74
2022/03/13 01:56:22;;;;;;;;;;;8.50;99.90;;;;;;5073661;28;20377;-74
2022/03/13 01:58:52;;;;;;;9.45;4.28;;;8.50;99.90;;;;;;5069693;28;19920;-74
2022/03/13 02:01:20;;;;;;;6.82;3.28;;;8.50;99.90;;;;;;5053750;28;20802;-73
2022/03/13 02:03:48;;;;;;;4.45;3.10;;;8.50;99.90;;;;;;5054344;28;20493;-73
2022/03/13 02:06:15;;;;;;;4.82;3.47;;;8.50;99.90;;;;;;5059974;28;20080;-73
2022/03/13 02:08:44;;;;;;;9.23;3.28;;;8.50;99.90;;;;;;5051078;28;20055;-71
2022/03/13 02:11:14;;;;;;;5.50;3.78;;;8.50;99.90;;;;;;5070873;28;20051;-72
2022/03/13 02:13:44;;;;;;;6.22;2.97;;;8.50;99.90;;;;;;5055341;28;20054;-72
2022/03/13 02:16:12;;;;;;;5.93;3.80;;;8.50;99.90;;;;;;5055956;28;20055;-72
2022/03/13 02:18:40;;;;;;;6.45;4.13;;;8.40;99.90;;;;;;5062638;28;20408;-73
2022/03/13 02:21:08;;;;;;;5.45;3.90;;;8.40;99.90;;;;;;5055140;28;20048;-73
2022/03/13 02:23:36;;;;;;;6.60;4.80;;;8.40;99.90;;;;;;5060889;28;20356;-74
2022/03/13 02:26:06;;;;;;;4.75;3.47;;;8.40;99.90;;;;;;5073287;28;20059;-73
2022/03/13 02:28:35;;;;;;;4.93;3.13;;;8.40;99.90;;;;;;5057227;28;20041;-74
2022/03/13 02:31:06;;;;;;;4.70;3.10;;;8.40;99.90;;;;;;5062114;28;20384;-73
2022/03/13 02:33:34;;;;;;;5.85;3.70;;;8.30;99.90;;;;;;5060339;28;20350;-74
2022/03/13 02:36:02;;;;;;;3.97;3.58;;;8.30;99.90;;;;;;5057746;28;20064;-73
2022/03/13 02:38:30;;;;;;;6.97;3.45;;;8.30;99.90;;;;;;5048212;28;20049;-73
2022/03/13 02:40:58;;;;;;;6.15;3.70;;;8.30;99.90;;;;;;5067790;28;20044;-74
2022/03/13 02:43:28;;;;;;;5.80;3.72;;;8.30;99.90;;;;;;5070868;28;20053;-73
2022/03/13 02:45:55;;;;;;;8.80;3.88;;;8.20;99.90;;;;;;5061486;28;20049;-74
2022/03/13 02:48:24;;;;;;;7.00;3.63;;;8.20;99.90;;;;;;5063117;28;20781;-73
2022/03/13 02:50:51;;;;;;;6.22;3.53;;;8.20;99.90;;;;;;5067565;28;20059;-73
2022/03/13 02:53:18;;;;;;;8.93;3.42;;;8.20;99.90;;;;;;5035879;28;20048;-74
2022/03/13 02:55:45;;;;;;;7.43;2.90;;;8.20;99.90;;;;;;5070728;28;20051;-74
2022/03/13 02:58:12;;;;;;;4.35;3.13;;;8.20;99.90;;;;;;5068380;28;20059;-73
2022/03/13 03:00:49;;;;;;;7.28;3.20;;;8.30;99.90;;;;;;5047858;28;20072;-73
2022/03/13 03:03:17;;;;;;;4.63;3.17;;;8.30;99.90;;;;;;5059376;28;20132;-73
2022/03/13 03:05:45;;;;;;;6.35;3.60;;;8.30;99.90;;;;;;5053853;28;20098;-73
2022/03/13 03:08:12;;;;;;;4.95;3.65;;;8.30;99.90;;;;;;5045657;28;20045;-73
2022/03/13 03:10:39;;;;;;;4.53;3.22;;;8.40;99.90;;;;;;5067139;28;20434;-75
2022/03/13 03:13:10;;;;;;;4.97;3.25;;;8.40;99.90;;;;;;5059260;28;20041;-74
2022/03/13 03:15:40;;;;;;;4.75;3.60;;;8.50;99.90;;;;;;5070824;28;20051;-73
2022/03/13 03:18:09;;;;;;;6.65;3.55;;;8.50;99.90;;;;;;5035743;28;20537;-74
2022/03/13 03:20:37;;;;;;;5.28;3.88;;;8.40;99.90;;;;;;5055021;28;20037;-73
2022/03/13 03:23:05;;;;;;;5.57;3.50;;;8.50;99.90;;;;;;5054841;28;20063;-74
2022/03/13 03:25:32;;;;;;;5.40;3.33;;;8.40;99.90;;;;;;5052646;28;20072;-74
2022/03/13 03:27:59;;;;;;;6.18;3.75;;;8.40;99.90;;;;;;5060065;28;20054;-74
2022/03/13 03:30:27;;;;;;;4.88;3.60;;;8.50;99.90;;;;;;5060878;28;20048;-73
2022/03/13 03:32:55;;;;;;;4.93;3.70;;;8.50;99.90;;;;;;5028422;28;20040;-73
2022/03/13 03:35:24;;;;;;;7.18;3.53;;;8.50;99.90;;;;;;5055284;28;20045;-74
2022/03/13 03:37:51;;;;;;;7.53;4.05;;;8.50;99.90;;;;;;5034541;28;20044;-73
2022/03/13 03:40:22;;;;;;;6.60;4.25;;;8.50;99.90;;;;;;5049953;28;20048;-73
2022/03/13 03:42:49;;;;;;;6.47;4.13;;;8.50;99.90;;;;;;5066216;28;20082;-74
2022/03/13 03:45:17;;;;;;;4.43;3.50;;;8.60;99.90;;;;;;5064021;28;20052;-74
2022/03/13 03:47:44;;;;;;;5.43;3.85;;;8.60;99.90;;;;;;5053104;28;20128;-73
2022/03/13 03:50:12;;;;;;;9.63;4.97;;;8.60;99.90;;;;;;5053705;28;20064;-73
2022/03/13 03:52:39;;;;;;;6.53;4.18;;;8.60;99.90;;;;;;5069781;28;20053;-74
2022/03/13 03:55:06;;;;;;;7.95;4.47;;;8.60;99.90;;;;;;5037813;28;20056;-74
2022/03/13 03:57:33;;;;;;;6.03;3.95;;;8.70;99.90;;;;;;5061805;28;20127;-74
2022/03/13 04:00:00;;;;;;;5.65;3.78;;;8.70;99.90;;;;;;5053842;28;20049;-73
2022/03/13 04:02:29;;;;;;;5.75;3.83;;;8.70;99.90;;;;;;5045747;28;20060;-74
2022/03/13 04:04:56;;;;;;;7.80;4.53;;;8.80;99.90;;;;;;5053462;28;20090;-73
2022/03/13 04:07:26;;;;;;;6.57;4.35;;;8.80;99.90;;;;;;5037816;28;20099;-74
2022/03/13 04:09:53;;;;;;;5.03;3.88;;;8.90;99.90;;;;;;5060192;28;20059;-74
2022/03/13 04:12:20;;;;;;;6.20;4.20;;;8.90;99.90;;;;;;5064986;28;20131;-74
2022/03/13 04:14:50;;;;;;;5.63;4.22;;;8.90;99.90;;;;;;5063758;28;20056;-74
2022/03/13 04:17:17;;;;;;;6.60;4.00;;;9.00;99.90;;;;;;5053547;28;20541;-74
2022/03/13 04:19:44;;;;;;;11.40;4.90;;;9.00;99.90;;;;;;5050197;28;20063;-74
2022/03/13 04:22:15;;;;;;;5.13;3.72;;;9.00;99.90;;;;;;5064914;28;20047;-74
2022/03/13 04:24:42;;;;;;;10.77;5.25;;;9.00;99.90;;;;;;5069720;28;20044;-73
2022/03/13 04:27:10;;;;;;;5.07;4.25;;;9.00;99.90;;;;;;5062883;28;20047;-73
2022/03/13 04:29:37;;;;;;;6.88;4.35;;;9.00;99.90;;;;;;5050877;28;20127;-73
2022/03/13 04:32:05;;;;;;;6.05;4.25;;;9.00;99.90;;;;;;5030323;28;20049;-68
2022/03/13 04:34:33;;;;;;;108.53;76.47;;;9.10;99.90;;;;;;5030988;28;20057;-71
2022/03/13 04:37:00;;;;;;;15.85;11.63;;;9.10;99.90;;;;;;5050425;28;20053;-73
2022/03/13 04:39:28;;;;;;;7.85;5.57;;;9.20;99.90;;;;;;5048515;28;20049;-73
2022/03/13 04:41:57;;;;;;;6.65;5.15;;;9.20;99.90;;;;;;5052250;28;20057;-73
2022/03/13 04:44:24;;;;;;;12.93;5.82;;;9.20;99.90;;;;;;5058037;28;20120;-73
2022/03/13 04:46:52;;;;;;;7.07;4.10;;;9.20;99.90;;;;;;5059790;28;20515;-73
2022/03/13 04:49:19;;;;;;;6.68;4.75;;;9.20;99.90;;;;;;5051967;28;20056;-73
2022/03/13 04:51:46;;;;;;;7.03;4.30;;;9.20;99.90;;;;;;5033582;28;20067;-74
2022/03/13 04:54:13;;;;;;;6.38;4.05;;;9.20;99.90;;;;;;5045337;28;20050;-73
2022/03/13 04:56:41;;;;;;;5.80;3.85;;;9.20;99.90;;;;;;5071604;28;20044;-73
2022/03/13 04:59:08;;;;;;;7.47;4.20;;;9.10;99.90;;;;;;5064759;28;20056;-73
2022/03/13 05:01:37;;;;;;;6.55;5.05;;;9.10;99.90;;;;;;5064028;28;20040;-73
2022/03/13 05:04:05;;;;;;;8.63;5.18;;;9.10;99.90;;;;;;5050639;28;20127;-73
2022/03/13 05:06:35;;;;;;;7.28;4.85;;;9.00;99.90;;;;;;5035916;28;20128;-73
2022/03/13 05:09:06;;;;;;;7.15;4.72;;;9.00;99.90;;;;;;5061966;28;20168;-73
2022/03/13 05:11:33;;;;;;;5.80;4.40;;;9.00;99.90;;;;;;5051578;28;20091;-73
2022/03/13 05:14:00;;;;;;;10.65;5.30;;;9.00;99.90;;;;;;5059220;28;20124;-73
2022/03/13 05:16:27;;;;;;;8.90;5.15;;;8.90;99.90;;;;;;5070163;28;20040;-73
2022/03/13 05:18:54;;;;;;;8.15;5.00;;;8.90;99.90;;;;;;5063010;28;20048;-73
2022/03/13 05:21:21;;;;;;;5.78;4.90;;;8.90;99.90;;;;;;5054311;28;20087;-74
2022/03/13 05:23:48;;;;;;;12.95;6.50;;;8.90;99.90;;;;;;5057714;28;20123;-73
2022/03/13 05:26:15;;;;;;;7.45;5.75;;;8.90;99.90;;;;;;5062323;28;20041;-74
2022/03/13 05:28:42;;;;;;;9.80;7.15;;;8.80;99.90;;;;;;5056252;28;20128;-74
2022/03/13 05:31:10;;;;;;;8.77;5.20;;;8.80;99.90;;;;;;5052579;28;20052;-74
2022/03/13 05:33:38;;;;;;;8.05;5.40;;;8.80;99.90;;;;;;5054579;28;20053;-74
2022/03/13 05:36:07;;;;;;;11.05;5.97;;;8.70;99.90;;;;;;5056076;28;20063;-74
2022/03/13 05:38:35;;;;;;;11.18;5.78;;;8.70;99.90;;;;;;5056574;28;20131;-74
2022/03/13 05:41:05;;;;;;;7.25;5.13;;;8.70;99.90;;;;;;5048357;28;20506;-74
2022/03/13 05:43:32;;;;;;;7.80;5.07;;;8.70;99.90;;;;;;5067764;28;20078;-74
2022/03/13 05:45:59;;;;;;;7.50;5.32;;;8.60;99.90;;;;;;5058958;28;20052;-74
2022/03/13 05:48:26;;;;;;;7.75;5.38;;;8.60;99.90;;;;;;5054464;28;20084;-74
2022/03/13 05:50:53;;;;;;;9.60;5.95;;;8.60;99.90;;;;;;5056673;28;20076;-74
2022/03/13 05:53:22;;;;;;;8.00;5.13;;;8.60;99.90;;;;;;5072139;28;20040;-74
2022/03/13 05:55:49;;;;;;;10.27;4.63;;;8.60;99.90;;;;;;5042033;28;20117;-74
2022/03/13 05:58:17;;;;;;;7.90;5.05;;;8.50;99.90;;;;;;5054065;28;20055;-74
2022/03/13 06:01:00;;;;;;;7.78;5.07;;;8.50;99.90;;;;;;5065947;28;20348;-75
2022/03/13 06:03:30;;;;;;;9.38;6.22;;;8.50;99.90;;;;;;5057292;28;20063;-75
2022/03/13 06:06:01;;;;;;;5.78;4.32;;;8.50;99.90;;;;;;5069784;28;20044;-75
2022/03/13 06:08:28;;;;;;;7.47;4.53;;;8.50;99.90;;;;;;5034659;28;20480;-75
2022/03/13 06:10:55;;;;;;;6.70;5.03;;;8.50;99.90;;;;;;5054572;28;20068;-75
2022/03/13 06:13:24;;;;;;;8.60;5.07;;;8.50;99.90;;;;;;5068290;28;20045;-75
2022/03/13 06:15:51;;;;;;;10.20;4.95;;;8.50;99.90;;;;;;5072014;28;20049;-74
2022/03/13 06:18:21;;;;;;;7.15;4.55;;;8.50;99.90;;;;;;5056496;28;20041;-75
2022/03/13 06:20:48;;;;;;;7.50;4.45;;;8.50;99.90;;;;;;5055275;28;20045;-74
2022/03/13 06:23:16;;;;;;;5.85;3.85;;;8.50;99.90;;;;;;5059293;28;20056;-74
2022/03/13 06:25:45;;;;;;;11.13;4.18;;;8.50;99.90;;;;;;5056020;28;20052;-74
2022/03/13 06:28:14;;;;;;;7.38;4.20;;;8.50;99.90;;;;;;5048576;28;20052;-74
2022/03/13 06:30:41;;;;;;;6.00;3.97;;;8.50;99.90;;;;;;5070584;28;20050;-74
2022/03/13 06:33:09;;;;;;;5.38;3.83;;;8.50;99.90;;;;;;5061905;28;20098;-74
2022/03/13 06:35:36;;;;;;;6.43;4.22;;;8.60;99.90;;;;;;5055451;28;20041;-74
2022/03/13 06:38:02;;;;;;;6.57;4.63;;;8.50;99.90;;;;;;5053755;28;20045;-74
2022/03/13 06:40:30;;;;;;;6.95;4.28;;;8.60;99.90;;;;;;5052295;28;20076;-74
2022/03/13 06:42:58;;;;;;;6.30;4.72;;;8.60;99.90;;;;;;5054901;28;20116;-74
2022/03/13 06:45:27;;;;;;;9.32;4.78;;;8.60;99.90;;;;;;5059165;28;20049;-74
2022/03/13 06:47:54;;;;;;;7.00;4.00;;;8.60;99.90;;;;;;5052590;28;20072;-74
2022/03/13 06:50:23;;;;;;;7.45;4.22;;;8.60;99.90;;;;;;5069334;28;20480;-74
2022/03/13 06:52:52;;;;;;;11.38;5.47;;;8.70;99.90;;;;;;5063191;28;20376;-69
2022/03/13 06:55:22;;;;;;;11.20;7.73;;;8.70;99.90;;;;;;5054776;28;20045;-75
2022/03/13 06:57:52;;;;;;;10.77;6.28;;;8.80;99.90;;;;;;5032932;28;20394;-75
2022/03/13 07:00:23;;;;;;;6.78;3.72;;;8.80;99.90;;;;;;5063075;28;20149;-75
2022/03/13 07:02:50;;;;;;;6.70;4.15;;;8.80;99.90;;;;;;5068777;28;20855;-75
2022/03/13 07:05:19;;;;;;;12.68;4.03;;;8.80;99.90;;;;;;5053232;28;20499;-75
2022/03/13 07:07:47;;;;;;;7.55;5.53;;;8.80;99.90;;;;;;5056655;28;20512;-75
2022/03/13 07:10:14;;;;;;;8.68;4.57;;;8.90;99.90;;;;;;5052117;28;20075;-75
2022/03/13 07:12:42;;;;;;;11.00;4.15;;;8.90;99.90;;;;;;5053269;28;20045;-74
2022/03/13 07:15:12;;;;;;;6.82;3.60;;;8.90;99.90;;;;;;5025418;28;20119;-75
2022/03/13 07:17:43;;;;;;;7.18;3.97;;;8.90;99.90;;;;;;5053770;28;20040;-75
2022/03/13 07:20:11;;;;;;;5.85;3.42;;;9.00;99.90;;;;;;5062681;28;20049;-75
2022/03/13 07:22:38;;;;;;;13.52;8.70;;;9.00;99.90;;;;;;5071724;28;20131;-74
2022/03/13 07:25:05;;;;;;;25.60;19.95;;;9.10;99.90;;;;;;5059672;28;20455;-73
2022/03/13 07:27:33;;;;;;;11.35;6.57;;;9.10;99.90;;;;;;5069704;28;20428;-73
2022/03/13 07:30:00;;;;;;;7.55;4.53;;;9.10;99.90;;;;;;5051605;28;20555;-74
2022/03/13 07:32:27;;;;;;;7.68;3.90;;;9.10;99.90;;;;;;5043631;28;20385;-74
2022/03/13 07:34:54;;;;;;;9.77;4.60;;;9.10;99.90;;;;;;5034817;28;20061;-74
2022/03/13 07:37:21;;;;;;;6.53;3.92;;;9.10;99.90;;;;;;5051863;28;20084;-74
2022/03/13 07:39:48;;;;;;;9.02;5.05;;;9.10;99.90;;;;;;5049447;28;20496;-74
2022/03/13 07:42:16;;;;;;;6.22;3.10;;;9.10;99.90;;;;;;5065763;28;20403;-73
2022/03/13 07:44:43;;;;;;;8.98;4.03;;;9.20;99.90;;;;;;5068495;28;20052;-73
2022/03/13 07:47:10;;;;;;;8.13;3.65;;;9.20;99.90;;;;;;5055272;28;20267;-73
2022/03/13 07:49:37;;;;;;;6.70;3.50;;;9.20;99.90;;;;;;5061902;28;20071;-73
2022/03/13 07:52:05;;;;;;;7.57;3.53;;;9.20;99.90;;;;;;5033506;28;20204;-74
2022/03/13 07:54:32;;;;;;;5.05;3.03;;;9.20;99.90;;;;;;5039812;28;20062;-73
2022/03/13 07:56:59;;;;;;;8.00;4.10;;;9.20;99.90;;;;;;5057293;28;20128;-73
2022/03/13 07:59:26;;;;;;;7.15;3.53;;;9.20;99.90;;;;;;5053785;28;20120;-74
2022/03/13 08:01:53;;;;;;;13.27;5.00;;;9.30;99.90;;;;;;5045420;28;20052;-73
2022/03/13 08:04:20;;;;;;;7.65;3.97;;;9.30;99.90;;;;;;5072114;28;20048;-74
2022/03/13 08:06:47;;;;;;;7.03;3.25;;;9.30;99.90;;;;;;5056090;28;20136;-74
2022/03/13 08:09:14;;;;;;;7.63;4.18;;;9.30;99.90;;;;;;5051831;28;20063;-74
2022/03/13 08:11:41;;;;;;;6.65;3.70;;;9.40;99.90;;;;;;5061397;28;20083;-74
2022/03/13 08:14:12;;;;;;;8.55;3.17;;;9.40;99.90;;;;;;5062262;28;20055;-73
2022/03/13 08:16:39;;;;;;;7.32;3.60;;;9.40;99.90;;;;;;5063918;28;20036;-73
2022/03/13 08:19:08;;;;;;;4.90;3.17;;;9.50;99.90;;;;;;5064233;28;20052;-74
2022/03/13 08:21:35;;;;;;;4.88;3.42;;;9.50;99.90;;;;;;5071461;28;20140;-74
2022/03/13 08:24:05;;;;;;;7.32;3.28;;;9.60;99.90;;;;;;5064348;28;20057;-74
2022/03/13 08:26:35;;;;;;;7.60;3.58;;;9.60;99.90;;;;;;5061587;28;20071;-74
2022/03/13 08:29:02;;;;;;;7.85;3.13;;;9.80;99.90;;;;;;5060190;28;20128;-73
2022/03/13 08:31:29;;;;;;;6.10;3.08;;;9.80;99.90;;;;;;5051537;28;20052;-73
2022/03/13 08:33:56;;;;;;;15.32;4.53;;;9.90;99.90;;;;;;5053588;28;20409;-74
2022/03/13 08:36:23;;;;;;;7.78;3.53;;;10.00;99.90;;;;;;5061525;28;20377;-73
2022/03/13 08:38:50;;;;;;;6.50;3.20;;;10.10;99.90;;;;;;5041213;28;20055;-73
2022/03/13 08:41:17;;;;;;;8.50;4.15;;;10.20;99.90;;;;;;5071859;28;20404;-73
2022/03/13 08:43:46;;;;;;;10.02;3.20;;;10.30;99.90;;;;;;5069072;28;20095;-73
2022/03/13 08:46:15;;;;;;;9.30;3.63;;;10.40;99.90;;;;;;5052984;28;20129;-73
2022/03/13 08:48:42;;;;;;;11.18;4.55;;;10.50;99.90;;;;;;5038311;28;21798;-73
2022/03/13 08:51:11;;;;;;;11.00;3.75;;;10.60;99.90;;;;;;5069731;28;20103;-74
2022/03/13 08:53:38;;;;;;;;;;;10.80;99.90;;;;;;5075125;28;20123;-73
2022/03/13 08:56:05;;;;;;;6.18;2.90;;;10.90;99.90;;;;;;5054918;28;20044;-74
2022/03/13 08:58:32;;;;;;;8.43;3.08;;;10.80;99.90;;;;;;5055160;28;20045;-73
2022/03/13 09:01:00;;;;;;;9.45;3.70;;;10.90;99.90;;;;;;5053863;28;20053;-74
2022/03/13 09:03:28;;;;;;;12.07;3.45;;;10.80;99.90;;;;;;5069204;28;20056;-74
2022/03/13 09:05:56;;;;;;;12.85;3.95;;;10.80;99.90;;;;;;5055415;28;20053;-74
2022/03/13 09:08:23;;;;;;;11.13;4.43;;;10.80;99.90;;;;;;5060256;28;20047;-73
2022/03/13 09:10:50;;;;;;;8.68;3.50;;;10.90;99.90;;;;;;5051458;28;20042;-74
2022/03/13 09:13:17;;;;;;;15.60;7.97;;;10.90;99.90;;;;;;5059339;28;20127;-74
2022/03/13 09:15:44;;;;;;;10.18;3.08;;;11.00;99.90;;;;;;5064845;28;20049;-72
2022/03/13 09:18:11;;;;;;;11.27;3.30;;;11.10;99.90;;;;;;5062096;28;20083;-72
2022/03/13 09:20:38;;;;;;;7.32;3.55;;;11.10;99.90;;;;;;5038051;28;20473;-74
2022/03/13 09:23:06;;;;;;;9.70;3.50;;;11.10;99.90;;;;;;5053188;28;20132;-74
2022/03/13 09:25:34;;;;;;;13.60;3.55;;;11.00;99.90;;;;;;5073384;28;20800;-73
2022/03/13 09:28:02;;;;;;;5.65;2.63;;;11.00;99.90;;;;;;5051409;28;20072;-73
2022/03/13 09:30:29;;;;;;;10.55;3.15;;;11.10;99.90;;;;;;5036428;28;20084;-73
2022/03/13 09:32:56;;;;;;;7.38;3.70;;;11.10;99.90;;;;;;5053256;28;20044;-74
2022/03/13 09:35:23;;;;;;;12.55;4.43;;;11.10;99.90;;;;;;5057888;28;20057;-74
2022/03/13 09:37:51;;;;;;;9.95;2.88;;;11.10;99.90;;;;;;5056976;28;20053;-73
2022/03/13 09:40:20;;;;;;;7.55;2.90;;;11.10;99.90;;;;;;5054313;28;20049;-73
2022/03/13 09:42:47;;;;;;;7.10;2.67;;;11.20;99.90;;;;;;5053802;28;20428;-73
2022/03/13 09:45:15;;;;;;;5.80;2.80;;;11.20;99.90;;;;;;5051566;28;20048;-73
2022/03/13 09:47:42;;;;;;;8.68;3.60;;;11.20;99.90;;;;;;5067393;28;20055;-73
2022/03/13 09:50:14;;;;;;;12.05;4.10;;;11.20;99.90;;;;;;5037726;28;20051;-73
2022/03/13 09:52:42;;;;;;;9.20;3.13;;;11.20;99.90;;;;;;5040077;28;20072;-73
2022/03/13 09:55:11;;;;;;;10.95;3.55;;;11.20;99.90;;;;;;5042498;28;20053;-73
2022/03/13 09:57:40;;;;;;;12.32;3.38;;;11.20;99.90;;;;;;5051986;28;20052;-72
2022/03/13 10:00:11;;;;;;;;;;;11.20;99.90;;;;;;5058129;28;20426;-73
2022/03/13 10:02:38;;;;;;;8.50;3.22;;;11.10;99.90;;;;;;5070679;28;19924;-73
2022/03/13 10:05:13;;;;;;;12.77;3.63;;;11.00;99.90;;;;;;5064346;28;20056;-73
2022/03/13 10:08:00;;;;;;;8.73;2.95;;;11.10;99.90;;;;;;5042838;28;20053;-73
2022/03/13 10:10:47;;;;;;;7.55;2.90;;;11.20;99.90;;;;;;5053443;28;20094;-73
2022/03/13 10:13:16;;;;;;;12.98;3.38;;;11.30;99.90;;;;;;5028481;28;20073;-72
2022/03/13 10:15:46;;;;;;;16.03;5.73;;;11.30;99.90;;;;;;5046062;28;20076;-73
2022/03/13 10:18:18;;;;;;;184.93;119.68;;;11.30;99.90;;;;;;5036167;28;20045;-72
2022/03/13 10:20:49;;;;;;;74.60;48.67;;;11.30;99.90;;;;;;5016928;28;20053;-72
2022/03/13 10:23:19;;;;;;;229.13;138.35;;;11.40;99.90;;;;;;5051992;28;20052;-73
2022/03/13 10:25:49;;;;;;;103.82;68.85;;;11.40;99.90;;;;;;5058109;28;20060;-71
2022/03/13 10:28:30;;;;;;;52.80;30.57;;;11.50;99.90;;;;;;5018756;28;20053;-71
2022/03/13 10:31:00;;;;;;;70.07;47.22;;;11.60;99.90;;;;;;5052376;28;20296;-72
2022/03/13 10:33:47;;;;;;;32.97;17.02;;;11.90;99.90;;;;;;5059205;28;20056;-74
2022/03/13 10:36:17;;;;;;;49.17;30.02;;;12.10;99.90;;;;;;5053291;28;20083;-72
2022/03/13 10:38:44;;;;;;;16.63;6.90;;;12.30;99.90;;;;;;5070480;28;20080;-75
2022/03/13 10:41:13;;;;;;;10.18;5.60;;;12.40;99.90;;;;;;5068837;28;20167;-71
2022/03/13 10:43:52;;;;;;;35.10;21.10;;;12.40;99.70;;;;;;5051827;28;20053;-74
2022/03/13 10:46:30;;;;;;;26.23;19.02;;;12.50;99.10;;;;;;5060093;28;20041;-73
2022/03/13 10:49:00;;;;;;;17.75;10.02;;;12.50;96.80;;;;;;5050606;28;20045;-74
2022/03/13 10:51:37;;;;;;;10.43;4.25;;;12.50;97.70;;;;;;5053289;28;20124;-73
2022/03/13 10:54:04;;;;;;;15.10;5.28;;;12.60;97.60;;;;;;5052143;28;20053;-77
2022/03/13 10:56:31;;;;;;;11.70;2.90;;;12.70;97.50;;;;;;5064445;28;20127;-73
2022/03/13 10:59:00;;;;;;;10.85;3.58;;;12.90;97.90;;;;;;5062378;28;20049;-75
2022/03/13 11:01:31;;;;;;;8.10;2.85;;;13.00;97.20;;;;;;5061059;28;20132;-75
2022/03/13 11:04:02;;;;;;;12.10;3.70;;;13.10;96.00;;;;;;5062344;28;20044;-73
2022/03/13 11:06:29;;;;;;;8.25;3.20;;;13.00;96.50;;;;;;5058368;28;20053;-75
2022/03/13 11:08:57;;;;;;;12.38;3.58;;;13.10;97.20;;;;;;5068502;28;20045;-73
2022/03/13 11:11:27;;;;;;;9.25;3.47;;;13.20;96.70;;;;;;5057912;28;20413;-73
2022/03/13 11:13:59;;;;;;;11.30;3.08;;;13.20;96.50;;;;;;5064251;28;20052;-69
2022/03/13 11:16:28;;;;;;;12.32;3.33;;;13.20;94.80;;;;;;5065610;28;20045;-72
2022/03/13 11:18:56;;;;;;;334.52;235.80;;;13.20;94.00;;;;;;5045773;28;20044;-64
2022/03/13 11:21:25;;;;;;;24.23;11.90;;;13.30;94.40;;;;;;5063413;28;20075;-64
2022/03/13 11:23:52;;;;;;;13.77;5.73;;;13.20;94.50;;;;;;5052043;28;20048;-64
2022/03/13 11:26:22;;;;;;;13.32;4.38;;;13.10;93.80;;;;;;5059691;28;20338;-64
2022/03/13 11:28:54;;;;;;;11.38;6.10;;;12.90;93.20;;;;;;5045336;28;20060;-63
2022/03/13 11:31:35;;;;;;;10.45;3.38;;;12.60;93.30;;;;;;5062023;28;20095;-63
2022/03/13 11:34:22;;;;;;;11.63;2.97;;;12.50;94.40;;;;;;5059831;28;20507;-73
2022/03/13 11:36:50;;;;;;;12.98;4.13;;;12.50;94.60;;;;;;5059112;28;20044;-63
2022/03/13 11:39:33;;;;;;;11.32;2.50;;;12.30;95.10;;;;;;5067987;28;20454;-63
2022/03/13 11:42:01;;;;;;;11.88;3.20;;;12.30;95.50;;;;;;5069130;28;20487;-63
2022/03/13 11:44:28;;;;;;;12.95;3.85;;;12.20;96.70;;;;;;5059122;28;20044;-74
2022/03/13 11:46:59;;;;;;;9.13;2.72;;;12.10;96.80;;;;;;5061600;28;20140;-73
2022/03/13 11:49:33;;;;;;;9.20;2.55;;;12.10;97.50;;;;;;5051457;28;20052;-74
2022/03/13 11:52:09;;;;;;;12.65;3.20;;;12.10;98.50;;;;;;5055643;28;20127;-73
2022/03/13 11:54:49;;;;;;;8.38;3.35;;;12.10;99.50;;;;;;5059672;28;20132;-72
2022/03/13 11:57:17;;;;;;;13.23;3.53;;;12.10;99.80;;;;;;5053898;28;20076;-75
2022/03/13 11:59:48;;;;;;;10.85;3.03;;;12.10;99.90;;;;;;5059385;28;20044;-74
2022/03/13 12:02:45;;;;;;;10.68;3.10;;;12.00;99.90;;;;;;5049024;28;20052;-75
2022/03/13 12:05:26;;;;;;;10.13;2.92;;;12.00;99.90;;;;;;5056600;28;20128;-76
2022/03/13 12:07:59;;;;;;;10.55;2.95;;;11.90;99.90;;;;;;5056298;28;20554;-74
2022/03/13 12:10:41;;;;;;;12.13;3.90;;;11.70;99.90;;;;;;5061014;28;20135;-76
2022/03/13 12:13:09;;;;;;;9.48;3.20;;;11.60;99.90;;;;;;5060962;28;20080;-50
2022/03/13 12:15:36;;;;;;;8.32;2.75;;;11.50;99.90;;;;;;5071908;28;20048;-70
2022/03/13 12:18:31;;;;;;;11.38;3.72;;;11.40;99.90;;;;;;5041413;28;20523;-69
2022/03/13 12:21:09;;;;;;;10.63;2.70;;;11.20;99.90;;;;;;5048759;28;20132;-72
2022/03/13 12:23:38;;;;;;;9.70;3.10;;;10.90;99.90;;;;;;5059750;28;20044;-72
2022/03/13 12:26:38;;;;;;;10.02;3.10;;;10.70;99.90;;;;;;5054635;28;20068;-72
2022/03/13 12:29:05;;;;;;;;;;;10.60;99.90;;;;;;5054127;28;20397;-72
2022/03/13 12:31:39;;;;;;;8.60;3.90;;;10.50;99.90;;;;;;5059739;28;19927;-69
2022/03/13 12:34:06;;;;;;;22.88;11.10;;;10.50;99.90;;;;;;5016512;28;20053;-71
2022/03/13 12:36:38;;;;;;;69.43;48.88;;;10.50;99.90;;;;;;5032863;28;20044;-66
2022/03/13 12:39:14;;;;;;;15.80;4.32;;;10.50;99.90;;;;;;5079760;28;20354;-72
2022/03/13 12:41:46;;;;;;;6.65;3.00;;;10.50;99.90;;;;;;5062548;28;20084;-74
2022/03/13 12:44:13;;;;;;;9.30;3.42;;;10.50;99.90;;;;;;5043593;28;20395;-73
2022/03/13 12:46:41;;;;;;;11.57;3.75;;;10.50;99.90;;;;;;5051732;28;20373;-76
2022/03/13 12:49:15;;;;;;;10.82;3.65;;;10.50;99.90;;;;;;5033962;28;20533;-76
2022/03/13 12:51:50;;;;;;;8.77;2.25;;;10.50;99.90;;;;;;5052683;28;20124;-76
2022/03/13 12:54:40;;;;;;;10.02;3.00;;;10.40;99.90;;;;;;5041349;28;20124;-77
2022/03/13 12:57:09;;;;;;;10.48;2.80;;;10.40;99.90;;;;;;5052833;28;20055;-76
2022/03/13 12:59:49;;;;;;;14.07;3.95;;;10.40;99.90;;;;;;5059780;28;20051;-77
2022/03/13 13:02:38;;;;;;;16.88;3.30;;;10.40;99.90;;;;;;5060273;28;20480;-76